Time;durP1;ratioP1;P1;durP2;ratioP2;P2;SDS_P1;SDS_P2;PMS_P1;PMS_P2;Temp;Humidity;BMP_temperature;BMP_pressure;BME280_temperature;BME280_humidity;BME280_pressure;Samples;Min_cycle;Max_cycle;Signal;HPM_P1;HPM_P2
2022/11/23 00:01:45;;;;;;;61.20;55.70;;;;;;;-0.06;85.58;96749.13;104917;1319;23373;-88
2022/11/23 00:04:13;;;;;;;54.20;49.20;;;;;;;-0.14;85.41;96748.93;104849;1326;22221;-86
2022/11/23 00:06:41;;;;;;;61.30;55.90;;;;;;;-0.19;85.73;96746.14;104842;1327;22267;-93
2022/11/23 00:09:10;;;;;;;61.30;55.80;;;;;;;-0.21;85.85;96743.59;104979;1327;22276;-93
2022/11/23 00:11:38;;;;;;;59.40;54.20;;;;;;;-0.24;85.66;96748.09;104940;1327;22332;-90
2022/11/23 00:14:06;;;;;;;63.90;58.10;;;;;;;-0.28;85.79;96745.73;104910;1327;22235;-91
2022/11/23 00:16:34;;;;;;;62.90;57.10;;;;;;;-0.31;86.02;96747.69;104846;1327;22121;-89
2022/11/23 00:19:02;;;;;;;62.30;56.40;;;;;;;-0.30;85.87;96750.55;104810;1327;22128;-88
2022/11/23 00:21:32;;;;;;;64.70;58.50;;;;;;;-0.30;85.85;96750.21;104714;1327;22214;-88
2022/11/23 00:24:00;;;;;;;69.10;62.40;;;;;;;-0.28;85.77;96750.13;104913;1326;22226;-89
2022/11/23 00:26:28;;;;;;;88.80;80.10;;;;;;;-0.26;85.81;96749.03;104852;1327;22273;-91
2022/11/23 00:28:56;;;;;;;94.50;84.90;;;;;;;-0.26;86.04;96747.42;105326;1310;22123;-90
2022/11/23 00:31:27;;;;;;;92.00;82.80;;;;;;;-0.28;86.16;96750.02;104935;1327;22174;-91
2022/11/23 00:33:57;;;;;;;80.60;73.20;;;;;;;-0.30;86.10;96750.70;104929;1322;22250;-89
2022/11/23 00:36:26;;;;;;;78.00;70.30;;;;;;;-0.32;86.04;96754.86;104895;1327;22173;-89
2022/11/23 00:38:56;;;;;;;74.40;67.00;;;;;;;-0.33;85.93;96760.54;104772;1327;22138;-89
2022/11/23 00:41:26;;;;;;;65.10;59.00;;;;;;;-0.32;85.74;96762.81;104796;1327;22095;-90
2022/11/23 00:43:54;;;;;;;71.30;64.50;;;;;;;-0.31;85.80;96765.36;104768;1328;22156;-90
2022/11/23 00:46:26;;;;;;;64.50;58.80;;;;;;;-0.31;85.71;96762.23;104886;1322;22170;-92
2022/11/23 00:48:56;;;;;;;68.70;62.30;;;;;;;-0.35;85.78;96759.24;104807;1327;23002;-87
2022/11/23 00:51:29;;;;;;;81.50;73.80;;;;;;;-0.39;85.75;96758.84;104857;1327;22230;-87
2022/11/23 00:53:58;;;;;;;83.50;75.50;;;;;;;-0.44;85.99;96760.36;104750;1325;22278;-90
2022/11/23 00:56:28;;;;;;;78.80;71.40;;;;;;;-0.47;86.09;96761.41;104984;1320;22228;-90
2022/11/23 00:58:57;;;;;;;70.00;63.50;;;;;;;-0.47;86.02;96759.66;104847;1327;22203;-88
2022/11/23 01:01:32;;;;;;;74.60;67.60;;;;;;;-0.45;86.04;96755.80;104699;1327;22181;-89
2022/11/23 01:04:03;;;;;;;82.70;74.40;;;;;;;-0.45;86.07;96752.94;105126;1321;22280;-90
2022/11/23 01:06:34;;;;;;;77.00;70.10;;;;;;;-0.42;86.11;96754.02;104788;1327;22213;-90
2022/11/23 01:09:07;;;;;;;82.40;74.50;;;;;;;-0.48;86.06;96748.75;104950;1326;22255;-87
2022/11/23 01:11:34;;;;;;;91.90;83.00;;;;;;;-0.58;85.88;96747.31;104944;1327;22225;-88
2022/11/23 01:14:03;;;;;;;99.00;87.70;;;;;;;-0.68;85.89;96749.16;104904;1327;22170;-89
2022/11/23 01:16:34;;;;;;;95.20;85.20;;;;;;;-0.73;86.42;96745.21;104948;1327;22197;-83
2022/11/23 01:19:05;;;;;;;85.20;76.90;;;;;;;-0.71;86.51;96745.87;104864;1327;22238;-89
2022/11/23 01:21:34;;;;;;;79.70;71.70;;;;;;;-0.65;86.54;96747.32;104626;1327;22236;-89
2022/11/23 01:24:08;;;;;;;71.50;64.90;;;;;;;-0.62;86.39;96741.41;104800;1327;22181;-90
2022/11/23 01:26:39;;;;;;;70.00;63.60;;;;;;;-0.61;86.44;96734.27;104952;1326;22235;-89
2022/11/23 01:29:07;;;;;;;71.00;64.30;;;;;;;-0.61;86.56;96731.89;105020;1315;22088;-88
2022/11/23 01:31:39;;;;;;;65.50;59.40;;;;;;;-0.61;86.75;96729.52;104912;1327;22901;-89
2022/11/23 01:34:15;;;;;;;61.70;56.10;;;;;;;-0.61;86.88;96720.80;104849;1326;22947;-90
2022/11/23 01:36:43;;;;;;;59.70;54.10;;;;;;;-0.59;86.75;96721.23;105041;1327;22237;-91
2022/11/23 01:39:12;;;;;;;61.10;55.30;;;;;;;-0.55;86.65;96722.67;105249;1310;22899;-91
2022/11/23 01:41:44;;;;;;;59.80;54.30;;;;;;;-0.51;86.73;96728.13;104957;1327;22384;-89
2022/11/23 01:44:24;;;;;;;63.30;57.40;;;;;;;-0.49;86.67;96723.50;104757;1312;22099;-87
2022/11/23 01:47:00;;;;;;;71.50;64.90;;;;;;;-0.51;86.53;96720.58;104916;1327;23035;-87
2022/11/23 01:49:42;;;;;;;67.20;61.00;;;;;;;-0.57;86.69;96714.88;104875;1327;22208;-93
2022/11/23 01:52:22;;;;;;;68.80;62.40;;;;;;;-0.63;86.98;96716.38;104837;1327;22278;-90
2022/11/23 01:54:56;;;;;;;60.90;55.30;;;;;;;-0.60;87.00;96724.34;104557;1327;22917;-87
2022/11/23 01:57:31;;;;;;;59.50;54.30;;;;;;;-0.59;86.96;96732.13;104777;1327;22813;-87
2022/11/23 02:00:00;;;;;;;60.50;55.10;;;;;;;-0.55;87.24;96733.77;105116;1312;22864;-85
2022/11/23 02:03:09;;;;;;;62.50;56.80;;;;;;;-0.51;87.30;96735.60;104894;1327;23066;-88
2022/11/23 02:05:42;;;;;;;59.60;54.10;;;;;;;-0.47;87.44;96737.33;104849;1327;22187;-86
2022/11/23 02:08:16;;;;;;;59.70;54.10;;;;;;;-0.45;87.50;96743.09;104756;1322;22893;-85
2022/11/23 02:10:46;;;;;;;53.00;48.20;;;;;;;-0.50;87.76;96742.23;104783;1327;22213;-88
2022/11/23 02:13:14;;;;;;;48.90;44.50;;;;;;;-0.51;88.12;96742.38;104850;1303;22293;-87
2022/11/23 02:15:42;;;;;;;47.70;43.40;;;;;;;-0.52;88.12;96739.73;104916;1322;22111;-87
2022/11/23 02:18:25;;;;;;;47.10;42.70;;;;;;;-0.50;88.27;96736.04;104817;1312;22214;-88
2022/11/23 02:20:54;;;;;;;49.60;45.10;;;;;;;-0.46;88.28;96737.54;105280;1318;22258;-88
2022/11/23 02:23:38;;;;;;;51.10;46.20;;;;;;;-0.49;88.71;96738.32;104924;1327;22096;-88
2022/11/23 02:26:17;;;;;;;51.30;46.60;;;;;;;-0.53;88.87;96737.66;105264;1320;22188;-87
2022/11/23 02:28:51;;;;;;;49.10;44.60;;;;;;;-0.58;88.87;96740.17;104944;1321;22969;-88
2022/11/23 02:31:19;;;;;;;48.00;43.50;;;;;;;-0.57;88.94;96736.69;104777;1327;22215;-88
2022/11/23 02:33:47;;;;;;;48.90;44.40;;;;;;;-0.55;88.95;96732.20;105178;1305;22212;-87
2022/11/23 02:36:35;;;;;;;48.70;44.00;;;;;;;-0.51;89.15;96733.80;104877;1305;22205;-89
2022/11/23 02:39:08;;;;;;;50.00;45.40;;;;;;;-0.46;89.05;96733.48;105471;1308;22919;-89
2022/11/23 02:41:48;;;;;;;51.10;46.40;;;;;;;-0.43;89.12;96738.62;105052;1317;22082;-88
2022/11/23 02:44:36;;;;;;;51.00;46.30;;;;;;;-0.40;89.18;96735.19;104921;1327;22147;-88
2022/11/23 02:47:07;;;;;;;46.00;41.70;;;;;;;-0.39;89.23;96740.38;104812;1327;22091;-88
2022/11/23 02:49:36;;;;;;;47.90;43.30;;;;;;;-0.37;89.52;96737.42;104780;1324;22238;-89
2022/11/23 02:52:05;;;;;;;42.70;38.80;;;;;;;-0.30;89.46;96737.41;104864;1327;22840;-88
2022/11/23 02:54:33;;;;;;;50.20;45.70;;;;;;;-0.25;89.46;96740.30;105000;1318;22181;-87
2022/11/23 02:57:01;;;;;;;50.40;45.70;;;;;;;-0.19;89.20;96740.91;104869;1327;23039;-91
2022/11/23 02:59:31;;;;;;;50.90;46.20;;;;;;;-0.14;89.35;96738.17;104969;1309;22202;-89
2022/11/23 03:02:01;;;;;;;48.80;44.60;;;;;;;-0.08;89.65;96737.46;104845;1327;22945;-89
2022/11/23 03:04:30;;;;;;;47.80;43.40;;;;;;;-0.03;89.62;96736.59;104855;1327;22244;-89
2022/11/23 03:06:58;;;;;;;46.70;42.30;;;;;;;-0.02;89.33;96735.38;104964;1327;22200;-89
2022/11/23 03:09:28;;;;;;;45.40;41.30;;;;;;;0.05;89.50;96733.16;104873;1327;22215;-90
2022/11/23 03:11:56;;;;;;;44.10;39.90;;;;;;;0.13;89.37;96730.13;105163;1309;22847;-90
2022/11/23 03:14:24;;;;;;;41.90;38.00;;;;;;;0.19;89.26;96727.29;104871;1327;22122;-91
2022/11/23 03:16:59;;;;;;;52.20;47.40;;;;;;;0.27;89.29;96727.36;105392;1312;22678;-88
2022/11/23 03:19:30;;;;;;;49.00;44.50;;;;;;;0.31;89.16;96729.02;105133;1320;22100;-89
2022/11/23 03:21:58;;;;;;;47.50;43.10;;;;;;;0.32;89.32;96726.31;105133;1308;22747;-90
2022/11/23 03:24:30;;;;;;;53.40;48.50;;;;;;;0.32;89.29;96722.23;105151;1320;22351;-88
2022/11/23 03:26:58;;;;;;;51.70;47.00;;;;;;;0.31;89.24;96721.11;104799;1312;22216;-89
2022/11/23 03:29:26;;;;;;;50.80;46.20;;;;;;;0.29;89.19;96720.11;105358;1304;22747;-85
2022/11/23 03:31:55;;;;;;;51.20;46.10;;;;;;;0.30;89.24;96718.83;104969;1308;22728;-89
2022/11/23 03:34:24;;;;;;;48.70;44.20;;;;;;;0.33;88.94;96718.63;104849;1327;22331;-89
2022/11/23 03:36:52;;;;;;;53.50;48.60;;;;;;;0.36;89.35;96712.38;104904;1327;22313;-88
2022/11/23 03:39:20;;;;;;;50.90;46.30;;;;;;;0.37;89.23;96713.02;104731;1320;23059;-89
2022/11/23 03:42:17;;;;;;;51.60;46.70;;;;;;;0.39;89.41;96719.02;104912;1327;22192;-88
2022/11/23 03:44:45;;;;;;;53.00;48.20;;;;;;;0.35;89.12;96715.23;104974;1320;22220;-88
2022/11/23 03:47:13;;;;;;;49.50;44.80;;;;;;;0.30;89.00;96714.70;104884;1322;22226;-86
2022/11/23 03:49:41;;;;;;;53.20;48.20;;;;;;;0.31;89.29;96714.60;105153;1315;22259;-89
2022/11/23 03:52:09;;;;;;;52.20;47.40;;;;;;;0.33;89.11;96718.31;105136;1314;22088;-90
2022/11/23 03:54:37;;;;;;;68.10;62.00;;;;;;;0.32;88.84;96722.49;104891;1327;22239;-91
2022/11/23 03:57:05;;;;;;;196.50;140.60;;;;;;;0.24;88.99;96722.52;104907;1327;22145;-90
2022/11/23 03:59:33;;;;;;;165.10;122.90;;;;;;;0.16;88.98;96724.94;104743;1327;22202;-92
2022/11/23 04:02:01;;;;;;;91.10;81.90;;;;;;;0.13;89.24;96727.52;104940;1324;22377;-91
2022/11/23 04:04:32;;;;;;;80.60;73.00;;;;;;;0.10;89.00;96728.10;105153;1308;23106;-92
2022/11/23 04:07:17;;;;;;;76.20;68.80;;;;;;;0.11;89.28;96725.98;105150;1299;22304;-86
2022/11/23 04:09:55;;;;;;;67.70;61.30;;;;;;;0.15;89.04;96727.38;105104;1291;22255;-93
2022/11/23 04:12:36;;;;;;;58.40;52.90;;;;;;;0.10;88.84;96728.41;104975;1298;22154;31
2022/11/23 04:15:04;;;;;;;;;;;;;;;0.04;88.99;96732.90;105514;1320;22391;-86
2022/11/23 04:17:32;;;;;;;63.10;57.30;;;;;;;-0.06;88.90;96730.54;105117;1327;21912;-87
2022/11/23 04:20:00;;;;;;;60.80;55.00;;;;;;;-0.14;88.88;96734.98;104946;1323;22855;-91
2022/11/23 04:22:28;;;;;;;59.60;54.00;;;;;;;-0.19;89.22;96733.02;105136;1327;22081;-89
2022/11/23 04:24:56;;;;;;;57.00;51.80;;;;;;;-0.18;89.33;96733.55;105043;1327;22143;-94
2022/11/23 04:27:24;;;;;;;58.50;53.20;;;;;;;-0.16;89.35;96733.23;105123;1320;22119;-91
2022/11/23 04:29:52;;;;;;;63.40;57.60;;;;;;;-0.13;89.50;96729.13;105374;1310;22142;-90
2022/11/23 04:32:20;;;;;;;63.30;57.40;;;;;;;-0.10;89.66;96730.41;105171;1305;22190;-91
2022/11/23 04:34:49;;;;;;;66.90;60.80;;;;;;;-0.10;89.55;96724.75;104853;1322;22133;-91
2022/11/23 04:37:17;;;;;;;64.90;58.80;;;;;;;-0.15;89.62;96725.30;105016;1327;22227;-93
2022/11/23 04:39:45;;;;;;;63.00;56.90;;;;;;;-0.14;89.59;96726.85;104898;1327;22293;-92
2022/11/23 04:42:23;;;;;;;61.60;55.80;;;;;;;-0.12;89.58;96727.77;105011;1327;22194;-88
2022/11/23 04:44:56;;;;;;;63.20;57.20;;;;;;;-0.11;89.30;96726.86;104887;1327;22238;-92
2022/11/23 04:47:25;;;;;;;59.10;53.50;;;;;;;-0.13;89.43;96730.41;105469;1320;22105;-93
2022/11/23 04:49:53;;;;;;;57.50;52.00;;;;;;;-0.20;89.34;96729.89;105040;1324;22206;-89
2022/11/23 04:52:21;;;;;;;62.00;55.90;;;;;;;-0.25;89.58;96723.73;105066;1308;22197;-91
2022/11/23 04:54:50;;;;;;;60.90;55.40;;;;;;;-0.26;89.87;96723.98;105273;1320;22176;-89
2022/11/23 04:57:18;;;;;;;56.90;51.30;;;;;;;-0.25;89.72;96723.89;105342;1297;22176;-91
2022/11/23 04:59:47;;;;;;;54.20;48.90;;;;;;;-0.23;89.59;96721.20;104827;1327;22686;-90
2022/11/23 05:02:16;;;;;;;56.80;51.30;;;;;;;-0.23;89.60;96718.17;105000;1320;22847;-90
2022/11/23 05:04:49;;;;;;;58.70;53.10;;;;;;;-0.20;89.66;96721.63;105049;1320;22141;-90
2022/11/23 05:07:18;;;;;;;55.50;50.40;;;;;;;-0.19;89.86;96726.50;104769;1330;22858;-88
2022/11/23 05:09:51;;;;;;;59.50;53.60;;;;;;;-0.18;89.90;96727.41;104854;1327;22298;-89
2022/11/23 05:12:21;;;;;;;56.90;51.40;;;;;;;-0.21;89.88;96723.63;104906;1327;22211;-90
2022/11/23 05:14:49;;;;;;;56.80;51.50;;;;;;;-0.20;89.90;96719.04;105308;1302;22842;-89
2022/11/23 05:17:28;;;;;;;52.40;47.60;;;;;;;-0.21;89.61;96721.05;104826;1327;22228;-89
2022/11/23 05:19:56;;;;;;;52.70;47.70;;;;;;;-0.19;89.81;96717.45;105081;1327;22794;-92
2022/11/23 05:22:25;;;;;;;53.70;48.60;;;;;;;-0.18;89.73;96716.24;104943;1325;22948;-91
2022/11/23 05:24:54;;;;;;;53.40;48.10;;;;;;;-0.19;89.87;96715.65;105308;1312;22190;-91
2022/11/23 05:27:23;;;;;;;53.90;48.90;;;;;;;-0.20;90.04;96711.79;104713;1327;22097;-91
2022/11/23 05:29:52;;;;;;;53.20;48.00;;;;;;;-0.22;89.97;96707.87;105304;1318;22231;-90
2022/11/23 05:32:20;;;;;;;51.40;46.50;;;;;;;-0.28;89.87;96704.71;105338;1306;22897;-89
2022/11/23 05:34:48;;;;;;;51.70;46.70;;;;;;;-0.38;90.08;96702.70;104945;1327;22195;-90
2022/11/23 05:37:17;;;;;;;55.00;49.90;;;;;;;-0.43;90.28;96707.48;105428;1305;22155;-91
2022/11/23 05:39:52;;;;;;;60.90;55.10;;;;;;;-0.50;90.96;96705.98;104834;1323;22154;-88
2022/11/23 05:42:21;;;;;;;73.20;66.30;;;;;;;-0.60;91.14;96710.09;105050;1320;22176;-89
2022/11/23 05:44:50;;;;;;;76.10;69.00;;;;;;;-0.67;90.97;96709.53;104878;1327;22190;-89
2022/11/23 05:47:22;;;;;;;63.40;57.50;;;;;;;-0.65;91.04;96712.34;104746;1327;22285;-88
2022/11/23 05:49:50;;;;;;;66.50;60.00;;;;;;;-0.61;90.58;96713.80;105339;1305;22150;-89
2022/11/23 05:52:19;;;;;;;69.60;63.00;;;;;;;-0.53;90.86;96713.79;104895;1327;22374;-90
2022/11/23 05:54:48;;;;;;;74.30;66.70;;;;;;;-0.49;90.52;96724.77;104950;1327;22038;-90
2022/11/23 05:57:24;;;;;;;78.20;65.60;;;;;;;-0.48;90.59;96732.29;105139;1302;22194;-90
2022/11/23 05:59:52;;;;;;;75.70;68.00;;;;;;;-0.45;90.89;96729.09;104899;1306;22141;-89
2022/11/23 06:02:22;;;;;;;74.30;66.90;;;;;;;-0.41;91.09;96738.05;104729;1325;22223;-91
2022/11/23 06:04:54;;;;;;;72.80;65.20;;;;;;;-0.36;90.90;96741.46;105008;1304;22105;-91
2022/11/23 06:07:30;;;;;;;;;;;;;;;-0.29;90.79;96746.36;104817;1331;22318;-92
2022/11/23 06:10:08;;;;;;;63.70;57.70;;;;;;;-0.26;90.75;96752.16;104794;1332;22109;-91
2022/11/23 06:12:38;;;;;;;60.90;55.50;;;;;;;-0.22;90.88;96753.17;104988;1317;22233;-90
2022/11/23 06:15:09;;;;;;;68.10;61.90;;;;;;;-0.20;91.11;96754.52;105103;1308;22161;-92
2022/11/23 06:17:38;;;;;;;64.30;58.10;;;;;;;-0.17;91.20;96751.45;105095;1307;22183;-88
2022/11/23 06:20:10;;;;;;;62.80;57.10;;;;;;;-0.18;91.65;96753.67;104903;1327;22080;-90
2022/11/23 06:22:43;;;;;;;64.80;58.80;;;;;;;-0.18;91.35;96754.36;105079;1300;22211;-86
2022/11/23 06:25:11;;;;;;;58.50;53.00;;;;;;;-0.14;91.24;96752.20;104901;1307;22075;-87
2022/11/23 06:27:41;;;;;;;59.90;54.30;;;;;;;-0.10;91.47;96759.42;104887;1332;22157;-89
2022/11/23 06:30:18;;;;;;;65.30;58.90;;;;;;;-0.08;91.53;96758.60;104850;1331;22247;-89
2022/11/23 06:32:46;;;;;;;67.80;61.50;;;;;;;-0.08;91.64;96759.80;104775;1331;22304;-91
2022/11/23 06:35:15;;;;;;;78.10;70.30;;;;;;;-0.09;91.67;96757.59;104794;1331;22244;-85
2022/11/23 06:37:46;;;;;;;73.00;65.90;;;;;;;-0.05;91.94;96761.15;104816;1324;22141;-90
2022/11/23 06:40:14;;;;;;;72.20;65.00;;;;;;;-0.08;92.08;96760.13;105052;1301;22137;-90
2022/11/23 06:42:42;;;;;;;73.20;66.30;;;;;;;-0.05;92.18;96769.16;104792;1330;22237;-91
2022/11/23 06:45:18;;;;;;;70.10;63.60;;;;;;;-0.02;92.06;96771.86;104826;1329;22226;-89
2022/11/23 06:47:47;;;;;;;67.80;61.60;;;;;;;-0.02;92.38;96777.48;104932;1328;22595;-89
2022/11/23 06:50:15;;;;;;;67.60;61.40;;;;;;;-0.08;92.54;96778.77;104769;1329;22193;-90
2022/11/23 06:52:44;;;;;;;64.00;58.00;;;;;;;-0.12;92.44;96776.70;104891;1329;22243;-89
2022/11/23 06:55:13;;;;;;;62.80;57.00;;;;;;;-0.14;92.53;96773.23;105024;1314;22168;-88
2022/11/23 06:57:41;;;;;;;56.30;50.90;;;;;;;-0.12;92.69;96767.90;104788;1330;22671;-90
2022/11/23 07:00:10;;;;;;;56.20;50.80;;;;;;;-0.10;92.65;96771.29;104810;1329;22229;-89
2022/11/23 07:02:38;;;;;;;58.70;53.40;;;;;;;-0.07;92.84;96774.80;104912;1330;22227;-88
2022/11/23 07:05:06;;;;;;;62.80;57.00;;;;;;;-0.07;93.07;96784.29;104779;1330;22329;-89
2022/11/23 07:07:35;;;;;;;63.20;57.00;;;;;;;-0.09;93.11;96786.80;104897;1322;22239;-90
2022/11/23 07:10:09;;;;;;;56.70;51.00;;;;;;;-0.12;93.22;96788.60;104783;1329;22205;-89
2022/11/23 07:12:45;;;;;;;64.10;57.80;;;;;;;-0.16;93.41;96795.56;105019;1323;22084;-90
2022/11/23 07:15:14;;;;;;;60.50;54.20;;;;;;;-0.16;93.15;96798.22;105010;1315;22092;-90
2022/11/23 07:17:43;;;;;;;60.40;54.40;;;;;;;-0.12;93.28;96799.14;104796;1330;22170;-90
2022/11/23 07:20:12;;;;;;;58.70;53.20;;;;;;;-0.10;93.22;96795.54;104771;1323;285480;-91
2022/11/23 07:22:40;;;;;;;63.60;57.70;;;;;;;-0.09;93.54;96793.70;104611;1330;22258;-92
2022/11/23 07:25:10;;;;;;;64.60;58.40;;;;;;;-0.12;93.59;96785.05;104798;1330;22253;-91
2022/11/23 07:27:38;;;;;;;51.50;46.70;;;;;;;-0.17;93.83;96788.94;104754;1330;22236;-88
2022/11/23 07:30:08;;;;;;;49.50;45.00;;;;;;;-0.23;93.84;96790.04;104808;1330;22236;-88
2022/11/23 07:32:36;;;;;;;49.30;44.70;;;;;;;-0.25;93.93;96792.52;104880;1323;22095;-89
2022/11/23 07:35:05;;;;;;;48.90;44.00;;;;;;;-0.25;93.94;96791.81;104793;1330;22218;-89
2022/11/23 07:37:34;;;;;;;47.20;42.80;;;;;;;-0.24;93.97;96787.69;105040;1330;21913;-84
2022/11/23 07:40:03;;;;;;;49.10;44.60;;;;;;;-0.20;94.07;96790.14;104923;1324;22116;-88
2022/11/23 07:42:32;;;;;;;49.00;44.60;;;;;;;-0.20;94.00;96789.35;104854;1330;22137;-92
2022/11/23 07:45:11;;;;;;;43.80;39.80;;;;;;;-0.20;93.97;96793.80;104916;1329;22214;-90
2022/11/23 07:47:44;;;;;;;44.00;39.90;;;;;;;-0.18;93.98;96791.63;104591;1330;22274;-91
2022/11/23 07:50:13;;;;;;;42.90;39.00;;;;;;;-0.14;93.85;96784.50;105028;1320;22071;-91
2022/11/23 07:52:41;;;;;;;42.70;38.80;;;;;;;-0.07;93.69;96785.46;104788;1330;22292;-90
2022/11/23 07:55:09;;;;;;;42.90;39.00;;;;;;;0.01;93.72;96780.56;104904;1312;22115;-90
2022/11/23 07:57:37;;;;;;;44.80;40.60;;;;;;;0.04;93.64;96783.33;105003;1328;22228;-89
2022/11/23 08:00:06;;;;;;;42.20;37.80;;;;;;;0.06;93.82;96783.75;104878;1330;22217;-87
2022/11/23 08:02:39;;;;;;;39.50;36.10;;;;;;;0.10;93.99;96788.17;104905;1323;22242;-87
2022/11/23 08:05:27;;;;;;;32.20;29.10;;;;;;;0.16;93.93;96785.91;104898;1323;23116;-89
2022/11/23 08:08:00;;;;;;;35.60;32.30;;;;;;;0.22;93.95;96785.09;105204;1320;22103;-88
2022/11/23 08:10:30;;;;;;;38.30;34.80;;;;;;;0.29;93.88;96788.94;104927;1330;22245;-89
2022/11/23 08:13:01;;;;;;;42.80;38.50;;;;;;;0.34;93.95;96787.79;105100;1301;22199;-89
2022/11/23 08:15:30;;;;;;;40.10;36.50;;;;;;;0.41;94.20;96791.52;104819;1330;22197;-90
2022/11/23 08:17:59;;;;;;;153.50;96.80;;;;;;;0.47;93.86;96795.88;104915;1328;22246;-88
2022/11/23 08:20:29;;;;;;;162.10;99.00;;;;;;;0.47;93.74;96796.35;104868;1324;22335;-91
2022/11/23 08:22:57;;;;;;;184.40;115.10;;;;;;;0.48;93.51;96797.17;104874;1329;22099;-90
2022/11/23 08:25:27;;;;;;;100.70;78.40;;;;;;;0.52;93.65;96796.48;105233;1311;22094;-90
2022/11/23 08:27:59;;;;;;;56.40;50.50;;;;;;;0.61;93.90;96799.59;104994;1328;22234;-91
2022/11/23 08:30:29;;;;;;;46.90;42.40;;;;;;;0.69;93.77;96796.36;104977;1328;22172;-92
2022/11/23 08:32:58;;;;;;;47.20;42.70;;;;;;;0.72;93.71;96797.60;104954;1328;23099;-92
2022/11/23 08:35:26;;;;;;;45.50;41.30;;;;;;;0.72;93.73;96789.11;104842;1330;22139;-89
2022/11/23 08:37:54;;;;;;;42.90;38.70;;;;;;;0.73;93.84;96791.77;104938;1327;22702;-87
2022/11/23 08:40:22;;;;;;;40.80;37.00;;;;;;;0.74;93.62;96793.73;104905;1327;22824;-91
2022/11/23 08:42:53;;;;;;;38.30;35.00;;;;;;;0.77;93.62;96789.44;105025;1328;22115;-93
2022/11/23 08:45:21;;;;;;;37.00;33.80;;;;;;;0.83;93.82;96792.05;104889;1330;22262;-91
2022/11/23 08:47:50;;;;;;;37.00;33.60;;;;;;;0.84;93.69;96789.23;104854;1330;22140;-93
2022/11/23 08:50:19;;;;;;;39.30;35.70;;;;;;;0.85;93.48;96784.10;105372;1314;22310;-91
2022/11/23 08:52:47;;;;;;;41.90;38.10;;;;;;;0.88;93.72;96784.09;105093;1320;22093;-93
2022/11/23 08:55:15;;;;;;;35.80;32.60;;;;;;;0.86;93.72;96783.46;105146;1308;22054;-91
2022/11/23 08:57:43;;;;;;;36.60;33.20;;;;;;;0.85;93.76;96780.77;105094;1321;22146;-89
2022/11/23 09:00:11;;;;;;;35.60;32.40;;;;;;;0.92;93.61;96783.41;105068;1320;22454;-88
2022/11/23 09:02:40;;;;;;;36.60;33.20;;;;;;;0.97;93.66;96780.39;105045;1300;22191;-91
2022/11/23 09:05:08;;;;;;;38.00;34.60;;;;;;;0.97;93.49;96782.51;105180;1327;22099;-86
2022/11/23 09:07:36;;;;;;;38.70;35.30;;;;;;;0.98;93.57;96783.79;104963;1322;22213;-89
2022/11/23 09:10:05;;;;;;;36.10;32.90;;;;;;;0.95;93.44;96789.09;105071;1320;22132;-86
2022/11/23 09:12:33;;;;;;;36.10;32.90;;;;;;;0.92;93.50;96786.44;104965;1322;22267;-88
2022/11/23 09:15:01;;;;;;;52.90;47.70;;;;;;;0.95;93.48;96796.08;105412;1312;22103;-91
2022/11/23 09:17:37;;;;;;;35.80;32.70;;;;;;;1.00;93.48;96795.09;105404;1297;22276;31
2022/11/23 09:20:10;;;;;;;41.00;36.90;;;;;;;1.01;93.58;96785.55;105999;1300;22274;31
2022/11/23 09:22:54;;;;;;;37.70;34.30;;;;;;;1.03;93.48;96783.16;101419;1298;22366;31
2022/11/23 09:25:23;;;;;;;36.60;33.30;;;;;;;1.04;93.52;96785.60;106091;1300;23370;-89
2022/11/23 09:28:03;;;;;;;37.70;34.00;;;;;;;1.03;93.60;96784.00;104895;1301;22098;-87
2022/11/23 09:30:31;;;;;;;35.10;31.90;;;;;;;1.06;93.68;96788.78;104786;1330;22289;-89
2022/11/23 09:32:59;;;;;;;30.80;28.00;;;;;;;1.14;93.60;96792.87;104839;1329;22248;-92
2022/11/23 09:35:27;;;;;;;31.90;29.10;;;;;;;1.20;93.30;96784.44;105056;1312;22843;-91
2022/11/23 09:37:56;;;;;;;32.60;29.60;;;;;;;1.22;93.43;96782.27;104843;1330;22252;-89
2022/11/23 09:40:37;;;;;;;30.80;28.10;;;;;;;1.22;93.40;96777.11;105063;1308;22077;-84
2022/11/23 09:43:23;;;;;;;33.80;30.80;;;;;;;1.24;93.45;96776.95;105067;1305;22376;-83
2022/11/23 09:45:53;;;;;;;32.80;29.70;;;;;;;1.22;93.44;96770.42;104742;1329;22196;-84
2022/11/23 09:48:23;;;;;;;31.30;28.40;;;;;;;1.19;93.31;96769.48;104742;1330;22196;-85
2022/11/23 09:50:59;;;;;;;32.50;29.40;;;;;;;1.24;93.21;96766.39;104684;1329;22111;-87
2022/11/23 09:53:39;;;;;;;34.30;31.10;;;;;;;1.30;93.34;96759.59;105020;1320;22691;-87
2022/11/23 09:56:16;;;;;;;31.80;28.90;;;;;;;1.32;93.08;96758.95;104740;1329;22884;-87
2022/11/23 09:58:45;;;;;;;33.20;30.20;;;;;;;1.34;93.29;96755.45;105078;1322;22182;-90
2022/11/23 10:01:20;;;;;;;34.50;31.40;;;;;;;1.35;93.35;96745.25;105387;1293;22442;-81
2022/11/23 10:03:48;;;;;;;34.30;30.90;;;;;;;1.38;93.30;96741.16;105255;1290;21893;-92
2022/11/23 10:06:19;;;;;;;33.40;30.40;;;;;;;1.43;93.21;96739.61;105170;1320;22200;-89
2022/11/23 10:09:00;;;;;;;29.10;26.10;;;;;;;1.45;93.08;96731.08;104919;1324;22213;-89
2022/11/23 10:11:28;;;;;;;39.00;35.10;;;;;;;1.47;93.00;96728.67;104758;1328;22285;-91
2022/11/23 10:14:05;;;;;;;35.10;31.50;;;;;;;1.49;93.17;96731.17;104971;1329;22996;-90
2022/11/23 10:17:01;;;;;;;30.00;27.30;;;;;;;1.53;93.09;96723.83;104998;1328;23099;-90
2022/11/23 10:19:46;;;;;;;27.00;24.60;;;;;;;1.53;92.73;96720.16;104855;1324;22160;-90
2022/11/23 10:22:25;;;;;;;;;;;;;;;1.48;92.52;96722.41;104946;1330;22343;-85
2022/11/23 10:25:03;;;;;;;31.50;28.70;;;;;;;1.46;92.88;96723.58;105179;1299;22099;-86
2022/11/23 10:27:31;;;;;;;33.00;29.80;;;;;;;1.51;92.75;96732.02;104826;1327;22989;-92
2022/11/23 10:30:00;;;;;;;31.10;28.40;;;;;;;1.57;92.74;96733.64;105115;1298;22205;-90
2022/11/23 10:32:59;;;;;;;32.80;29.80;;;;;;;1.65;93.00;96736.70;105457;1314;22277;-91
2022/11/23 10:35:30;;;;;;;34.00;31.00;;;;;;;1.69;92.67;96731.12;105020;1302;22695;-90
2022/11/23 10:38:13;;;;;;;30.90;28.20;;;;;;;1.72;92.52;96730.05;105169;1320;22990;-90
2022/11/23 10:41:03;;;;;;;30.20;27.40;;;;;;;1.65;91.73;96725.02;104918;1327;22206;-86
2022/11/23 10:43:40;;;;;;;28.80;26.10;;;;;;;1.63;91.96;96724.17;104825;1327;22936;-89
2022/11/23 10:46:36;;;;;;;30.70;27.90;;;;;;;1.62;92.04;96724.13;105441;1309;22176;-90
2022/11/23 10:49:28;;;;;;;29.40;26.70;;;;;;;1.63;92.23;96722.53;104964;1321;22929;-86
2022/11/23 10:52:02;;;;;;;33.30;29.70;;;;;;;1.59;92.12;96721.53;104847;1327;22093;-88
2022/11/23 10:54:52;;;;;;;32.30;29.50;;;;;;;1.58;91.90;96722.86;105112;1323;22179;-89
2022/11/23 10:57:26;;;;;;;31.90;28.90;;;;;;;1.55;91.71;96718.41;104910;1327;22804;-90
2022/11/23 11:00:00;;;;;;;33.20;30.00;;;;;;;1.57;91.54;96713.52;104930;1327;22979;-89
2022/11/23 11:02:28;;;;;;;33.10;29.90;;;;;;;1.57;91.54;96716.08;104865;1327;22227;-89
2022/11/23 11:05:35;;;;;;;34.80;31.60;;;;;;;1.60;91.83;96715.33;105098;1307;22200;-88
2022/11/23 11:08:34;;;;;;;36.60;33.10;;;;;;;1.61;91.80;96717.59;104996;1327;22023;-84
2022/11/23 11:11:21;;;;;;;36.80;33.30;;;;;;;1.65;92.03;96717.06;104862;1327;22131;-88
2022/11/23 11:13:49;;;;;;;31.90;28.90;;;;;;;1.67;91.76;96713.66;104927;1327;22094;-89
2022/11/23 11:16:29;;;;;;;32.30;29.20;;;;;;;1.70;91.64;96713.80;104897;1326;22221;-87
2022/11/23 11:18:59;;;;;;;30.70;27.60;;;;;;;1.69;91.47;96709.23;104939;1327;22184;-87
2022/11/23 11:21:39;;;;;;;32.40;29.10;;;;;;;1.70;90.91;96716.51;104932;1327;22350;-86
2022/11/23 11:24:18;;;;;;;31.00;28.10;;;;;;;1.67;91.58;96711.80;104912;1326;22273;-85
2022/11/23 11:26:51;;;;;;;30.90;28.20;;;;;;;1.64;91.21;96715.58;104835;1328;22194;-85
2022/11/23 11:29:33;;;;;;;30.80;27.90;;;;;;;1.60;91.14;96713.23;104821;1328;22200;-84
2022/11/23 11:32:32;;;;;;;31.00;28.00;;;;;;;1.56;91.02;96715.44;104837;1327;22109;-85
2022/11/23 11:35:15;;;;;;;29.80;27.10;;;;;;;1.59;91.15;96718.61;104968;1327;22267;-90
2022/11/23 11:37:54;;;;;;;29.90;27.30;;;;;;;1.65;91.25;96715.73;104886;1327;22187;-87